createdAt,value
2019-03-17T00:01:42.698Z,14.10
2019-03-17T00:04:12.461Z,14.00
2019-03-17T00:06:45.020Z,15.88
2019-03-17T00:09:18.063Z,13.67
2019-03-17T00:11:47.890Z,17.12
2019-03-17T00:14:17.676Z,17.02
2019-03-17T00:16:48.059Z,13.03
2019-03-17T00:19:18.659Z,12.82
2019-03-17T00:21:49.875Z,13.08
2019-03-17T00:24:19.935Z,15.95
2019-03-17T00:26:49.775Z,12.00
2019-03-17T00:29:21.153Z,12.23
2019-03-17T00:31:50.893Z,13.13
2019-03-17T00:34:22.414Z,12.90
2019-03-17T00:36:54.454Z,11.00
2019-03-17T00:39:24.319Z,14.30
2019-03-17T00:41:54.474Z,15.20
2019-03-17T00:44:24.331Z,13.50
2019-03-17T00:46:56.402Z,14.50
2019-03-17T00:49:26.291Z,12.55
2019-03-17T00:51:56.470Z,12.40
2019-03-17T00:54:26.536Z,13.18
2019-03-17T00:56:57.634Z,14.35
2019-03-17T00:59:27.400Z,10.80
2019-03-17T01:01:57.488Z,12.50
2019-03-17T01:04:28.492Z,13.30
2019-03-17T01:06:59.654Z,16.00
2019-03-17T01:09:29.790Z,15.48
2019-03-17T01:11:59.573Z,12.15
2019-03-17T01:14:29.264Z,12.43
2019-03-17T01:16:58.981Z,11.95
2019-03-17T01:19:28.896Z,12.53
2019-03-17T01:22:02.162Z,12.90
2019-03-17T01:24:37.686Z,13.93
2019-03-17T01:27:07.910Z,16.10
2019-03-17T01:29:39.205Z,14.25
2019-03-17T01:32:09.582Z,15.00
2019-03-17T01:34:39.948Z,13.88
2019-03-17T01:37:09.982Z,14.50
2019-03-17T01:39:39.895Z,12.55
2019-03-17T01:42:09.839Z,13.15
2019-03-17T01:44:39.532Z,14.93
2019-03-17T01:47:09.349Z,14.87
2019-03-17T01:49:44.053Z,13.28
2019-03-17T01:52:13.942Z,14.58
2019-03-17T01:54:43.696Z,15.30
2019-03-17T01:57:13.491Z,12.55
2019-03-17T01:59:43.977Z,19.07
2019-03-17T02:02:14.111Z,11.88
2019-03-17T02:04:43.767Z,12.88
2019-03-17T02:07:14.840Z,10.93
2019-03-17T02:09:44.601Z,12.93
2019-03-17T02:12:14.337Z,12.20
2019-03-17T02:14:44.185Z,15.53
2019-03-17T02:17:14.038Z,15.05
2019-03-17T02:19:43.778Z,12.20
2019-03-17T02:22:14.026Z,13.45
2019-03-17T02:24:44.107Z,13.43
2019-03-17T02:27:13.766Z,11.78
2019-03-17T02:29:43.447Z,12.47
2019-03-17T02:32:13.120Z,13.08
2019-03-17T02:34:44.802Z,12.30
2019-03-17T02:37:14.587Z,14.18
2019-03-17T02:39:44.335Z,15.30
2019-03-17T02:42:18.767Z,12.73
2019-03-17T02:44:50.433Z,13.08
2019-03-17T02:47:21.326Z,16.30
2019-03-17T02:49:54.313Z,14.10
2019-03-17T02:52:24.076Z,13.83
2019-03-17T02:54:54.038Z,15.13
2019-03-17T02:57:24.683Z,12.37
2019-03-17T02:59:54.674Z,21.60
2019-03-17T03:02:24.407Z,12.88
2019-03-17T03:04:54.215Z,13.90
2019-03-17T03:07:26.653Z,14.65
2019-03-17T03:09:56.311Z,14.65
2019-03-17T03:12:26.103Z,12.18
2019-03-17T03:14:56.528Z,13.93
2019-03-17T03:17:26.239Z,13.95
2019-03-17T03:19:56.578Z,14.03
2019-03-17T03:22:26.568Z,13.37
2019-03-17T03:24:58.040Z,16.07
2019-03-17T03:27:27.747Z,13.62
2019-03-17T03:29:58.447Z,14.95
2019-03-17T03:32:28.570Z,11.43
2019-03-17T03:34:58.341Z,11.57
2019-03-17T03:37:30.124Z,13.10
2019-03-17T03:40:01.396Z,11.65
2019-03-17T03:42:31.641Z,12.63
2019-03-17T03:45:01.649Z,13.68
2019-03-17T03:47:32.736Z,12.95
2019-03-17T03:50:04.505Z,11.78
2019-03-17T03:52:34.741Z,15.75
2019-03-17T03:55:05.105Z,14.60
2019-03-17T03:57:35.241Z,12.23
2019-03-17T04:00:05.847Z,12.78
2019-03-17T04:02:37.390Z,14.47
2019-03-17T04:05:08.735Z,13.53
2019-03-17T04:07:38.468Z,13.32
2019-03-17T04:10:08.965Z,14.33
2019-03-17T04:12:38.593Z,13.30
2019-03-17T04:15:08.688Z,15.63
2019-03-17T04:17:38.431Z,14.47
2019-03-17T04:20:10.159Z,15.28
2019-03-17T04:22:39.944Z,33.70
2019-03-17T04:25:10.322Z,14.00
2019-03-17T04:27:40.058Z,12.45
2019-03-17T04:30:10.844Z,14.25
2019-03-17T04:32:45.231Z,14.53
2019-03-17T04:35:15.115Z,14.23
2019-03-17T04:37:44.820Z,14.38
2019-03-17T04:40:16.238Z,13.98
2019-03-17T04:42:46.248Z,13.65
2019-03-17T04:45:15.951Z,12.20
2019-03-17T04:47:45.743Z,11.83
2019-03-17T04:50:15.605Z,11.93
2019-03-17T04:52:45.679Z,13.55
2019-03-17T04:55:16.186Z,13.18
2019-03-17T04:57:46.030Z,12.85
2019-03-17T05:00:16.940Z,13.00
2019-03-17T05:02:47.107Z,12.57
2019-03-17T05:05:16.844Z,16.12
2019-03-17T05:07:50.016Z,13.08
2019-03-17T05:10:22.903Z,15.67
2019-03-17T05:12:53.061Z,13.20
2019-03-17T05:15:24.417Z,15.72
2019-03-17T05:17:54.835Z,13.65
2019-03-17T05:20:24.510Z,16.23
2019-03-17T05:22:54.345Z,13.38
2019-03-17T05:25:24.219Z,14.55
2019-03-17T05:27:54.308Z,13.68
2019-03-17T05:30:24.249Z,15.95
2019-03-17T05:32:55.470Z,11.77
2019-03-17T05:35:25.331Z,15.08
2019-03-17T05:37:57.272Z,16.15
2019-03-17T05:40:27.125Z,16.37
2019-03-17T05:42:56.909Z,14.30
2019-03-17T05:45:26.970Z,14.97
2019-03-17T05:47:56.796Z,15.48
2019-03-17T05:50:26.472Z,16.15
2019-03-17T05:52:56.298Z,14.93
2019-03-17T05:55:27.759Z,14.25
2019-03-17T05:57:57.959Z,15.50
2019-03-17T06:00:27.943Z,16.00
2019-03-17T06:02:57.726Z,14.73
2019-03-17T06:05:27.419Z,16.02
2019-03-17T06:07:58.508Z,16.00
2019-03-17T06:10:30.687Z,18.42
2019-03-17T06:13:00.583Z,19.35
2019-03-17T06:15:30.298Z,15.17
2019-03-17T06:18:02.192Z,15.55
2019-03-17T06:20:32.426Z,17.23
2019-03-17T06:23:05.006Z,15.13
2019-03-17T06:25:38.184Z,17.13
2019-03-17T06:28:08.049Z,15.70
2019-03-17T06:30:39.631Z,16.48
2019-03-17T06:33:09.921Z,16.90
2019-03-17T06:35:39.681Z,17.60
2019-03-17T06:38:09.502Z,16.40
2019-03-17T06:40:39.648Z,15.93
2019-03-17T06:43:09.380Z,16.75
2019-03-17T06:45:41.428Z,16.00
2019-03-17T06:48:11.832Z,16.93
2019-03-17T06:50:42.349Z,15.05
2019-03-17T06:53:12.180Z,14.30
2019-03-17T06:55:41.960Z,14.70
2019-03-17T06:58:11.644Z,17.98
2019-03-17T07:00:41.314Z,14.85
2019-03-17T07:03:18.156Z,17.02
2019-03-17T07:05:47.941Z,19.20
2019-03-17T07:08:21.167Z,17.25
2019-03-17T07:10:51.744Z,17.80
2019-03-17T07:13:21.813Z,18.27
2019-03-17T07:15:51.566Z,19.15
2019-03-17T07:18:22.768Z,21.20
2019-03-17T07:20:53.061Z,19.03
2019-03-17T07:23:24.265Z,21.35
2019-03-17T07:25:54.696Z,19.92
2019-03-17T07:28:26.386Z,23.15
2019-03-17T07:30:57.671Z,26.57
2019-03-17T07:33:27.840Z,24.50
2019-03-17T07:36:23.601Z,24.43
2019-03-17T07:38:56.232Z,25.02
2019-03-17T07:41:28.349Z,22.30
2019-03-17T07:43:58.014Z,22.85
2019-03-17T07:46:28.180Z,19.37
2019-03-17T07:48:57.904Z,17.05
2019-03-17T07:51:27.737Z,17.73
2019-03-17T07:54:00.624Z,19.10
2019-03-17T07:56:34.101Z,19.23
2019-03-17T07:59:05.085Z,19.00
2019-03-17T08:01:39.035Z,17.17
2019-03-17T08:04:08.814Z,21.05
2019-03-17T08:06:38.843Z,18.73
2019-03-17T08:09:11.843Z,22.05
2019-03-17T08:11:47.056Z,19.53
2019-03-17T08:14:50.124Z,18.67
2019-03-17T08:17:46.046Z,21.33
2019-03-17T08:20:43.211Z,20.35
2019-03-17T08:26:15.596Z,22.07
2019-03-17T08:28:47.282Z,22.95
2019-03-17T08:31:16.879Z,18.55
2019-03-17T08:33:59.504Z,19.52
2019-03-17T08:36:34.059Z,21.10
2019-03-17T08:39:13.218Z,22.40
2019-03-17T08:41:43.479Z,20.82
2019-03-17T08:44:13.186Z,21.07
2019-03-17T08:46:43.104Z,20.57
2019-03-17T08:49:13.075Z,21.97
2019-03-17T08:51:43.161Z,19.50
2019-03-17T08:54:13.059Z,18.73
2019-03-17T08:56:43.347Z,19.50
2019-03-17T08:59:13.074Z,20.62
2019-03-17T09:01:43.419Z,37.13
2019-03-17T09:04:15.819Z,47.80
2019-03-17T09:06:45.607Z,44.95
2019-03-17T09:09:15.366Z,55.15
2019-03-17T09:11:45.541Z,50.12
2019-03-17T09:14:15.279Z,41.80
2019-03-17T09:16:45.376Z,44.85
2019-03-17T09:19:15.218Z,43.50
2019-03-17T09:21:45.480Z,44.45
2019-03-17T09:24:17.454Z,46.25
2019-03-17T09:26:47.039Z,42.47
2019-03-17T09:29:16.839Z,39.95
2019-03-17T09:31:49.845Z,42.83
2019-03-17T09:34:19.643Z,39.00
2019-03-17T09:36:49.444Z,38.50
2019-03-17T09:39:20.605Z,28.87
2019-03-17T09:41:50.425Z,24.80
2019-03-17T09:44:21.771Z,26.50
2019-03-17T09:46:51.683Z,22.27
2019-03-17T09:49:21.555Z,21.05
2019-03-17T09:51:51.427Z,18.05
2019-03-17T09:54:21.314Z,22.02
2019-03-17T09:56:51.857Z,17.73
2019-03-17T09:59:25.349Z,17.62
2019-03-17T10:01:55.258Z,17.07
2019-03-17T10:04:26.803Z,18.23
2019-03-17T10:06:56.617Z,19.80
2019-03-17T10:09:27.821Z,20.88
2019-03-17T10:11:57.526Z,19.17
2019-03-17T10:14:31.881Z,18.35
2019-03-17T10:17:02.352Z,20.03
2019-03-17T10:19:32.135Z,24.15
2019-03-17T10:22:06.690Z,22.73
2019-03-17T10:24:36.749Z,23.20
2019-03-17T10:27:06.595Z,21.68
2019-03-17T10:29:37.134Z,21.02
2019-03-17T10:32:06.975Z,19.77
2019-03-17T10:34:36.738Z,21.82
2019-03-17T10:37:06.536Z,18.12
2019-03-17T10:39:36.693Z,17.37
2019-03-17T10:42:06.522Z,16.87
2019-03-17T10:44:36.650Z,16.20
2019-03-17T10:47:06.522Z,21.10
2019-03-17T10:49:36.362Z,20.48
2019-03-17T10:52:06.599Z,12.25
2019-03-17T10:54:36.734Z,12.00
2019-03-17T10:57:09.507Z,13.50
2019-03-17T10:59:40.363Z,12.40
2019-03-17T11:02:10.702Z,10.65
2019-03-17T11:04:40.450Z,11.55
2019-03-17T11:07:10.934Z,10.43
2019-03-17T11:09:41.110Z,10.78
2019-03-17T11:12:10.960Z,11.83
2019-03-17T11:14:41.086Z,13.18
2019-03-17T11:17:10.977Z,12.00
2019-03-17T11:19:40.820Z,16.57
2019-03-17T11:22:10.941Z,10.60
2019-03-17T11:24:41.150Z,17.20
2019-03-17T11:27:11.086Z,19.60
2019-03-17T11:29:40.934Z,9.43
2019-03-17T11:32:10.766Z,15.63
2019-03-17T11:34:41.040Z,16.52
2019-03-17T11:37:11.359Z,14.83
2019-03-17T11:39:41.494Z,16.65
2019-03-17T11:42:11.608Z,18.70
2019-03-17T11:44:41.387Z,14.58
2019-03-17T11:47:12.083Z,15.88
2019-03-17T11:49:46.174Z,21.07
2019-03-17T11:52:16.143Z,18.37
2019-03-17T11:54:45.806Z,12.45
2019-03-17T11:57:15.498Z,13.10
2019-03-17T11:59:45.343Z,11.87
2019-03-17T12:02:26.085Z,9.83
2019-03-17T12:04:46.473Z,12.47
2019-03-17T12:07:16.939Z,10.60
2019-03-17T12:09:50.396Z,14.97
2019-03-17T12:12:17.963Z,12.13
2019-03-17T12:14:47.690Z,8.25
2019-03-17T12:17:17.400Z,9.03
2019-03-17T12:19:48.133Z,10.58
2019-03-17T12:22:18.243Z,12.47
2019-03-17T12:24:47.976Z,11.00
2019-03-17T12:27:19.298Z,12.47
2019-03-17T12:29:49.171Z,12.20
2019-03-17T12:32:18.966Z,15.45
2019-03-17T12:34:49.390Z,11.00
2019-03-17T12:37:25.224Z,15.40
2019-03-17T12:40:14.971Z,12.93
2019-03-17T12:42:55.765Z,11.57
2019-03-17T12:45:26.868Z,9.63
2019-03-17T12:48:00.889Z,12.35
2019-03-17T12:50:32.215Z,12.70
2019-03-17T12:53:02.696Z,13.58
2019-03-17T12:55:32.646Z,12.00
2019-03-17T12:58:04.026Z,13.67
2019-03-17T13:00:41.498Z,12.70
2019-03-17T13:03:18.367Z,7.20
2019-03-17T13:05:58.787Z,10.80
2019-03-17T13:08:34.790Z,7.58
2019-03-17T13:11:24.731Z,6.50
2019-03-17T13:14:00.953Z,8.13
2019-03-17T13:16:33.040Z,12.78
2019-03-17T13:19:02.742Z,10.57
2019-03-17T13:21:32.452Z,6.40
2019-03-17T13:24:09.050Z,7.58
2019-03-17T13:26:38.957Z,11.63
2019-03-17T13:29:21.441Z,15.55
2019-03-17T13:31:51.028Z,12.43
2019-03-17T13:34:23.408Z,7.97
2019-03-17T13:37:05.936Z,8.83
2019-03-17T13:39:36.721Z,9.43
2019-03-17T13:42:10.535Z,7.70
2019-03-17T13:44:40.187Z,7.65
2019-03-17T13:47:10.538Z,7.10
2019-03-17T13:49:53.970Z,7.62
2019-03-17T13:52:45.638Z,6.28
2019-03-17T13:55:27.248Z,6.53
2019-03-17T13:58:02.131Z,6.53
2019-03-17T14:00:37.056Z,6.22
2019-03-17T14:03:08.206Z,6.17
2019-03-17T14:05:38.011Z,6.87
2019-03-17T14:08:12.024Z,6.35
2019-03-17T14:10:42.680Z,6.30
2019-03-17T14:13:12.548Z,7.17
2019-03-17T14:15:42.681Z,15.58
2019-03-17T14:18:12.583Z,8.25
2019-03-17T14:20:43.832Z,6.07
2019-03-17T14:23:16.967Z,6.33
2019-03-17T14:25:56.667Z,7.10
2019-03-17T14:28:26.396Z,7.05
2019-03-17T14:30:56.227Z,7.15
2019-03-17T14:33:28.355Z,7.22
2019-03-17T14:36:13.992Z,7.42
2019-03-17T14:38:43.809Z,6.85
2019-03-17T14:41:13.748Z,8.07
2019-03-17T14:43:43.611Z,6.33
2019-03-17T14:46:13.333Z,7.87
2019-03-17T14:48:43.040Z,7.40
2019-03-17T14:51:18.711Z,8.48
2019-03-17T14:53:54.339Z,6.72
2019-03-17T14:56:24.477Z,6.55
2019-03-17T14:58:54.564Z,8.55
2019-03-17T15:01:24.480Z,7.58
2019-03-17T15:04:00.963Z,7.97
2019-03-17T15:06:43.158Z,6.83
2019-03-17T15:09:13.114Z,7.60
2019-03-17T15:11:42.789Z,7.42
2019-03-17T15:14:14.984Z,10.00
2019-03-17T15:16:44.878Z,22.37
2019-03-17T15:19:17.309Z,11.10
2019-03-17T15:21:57.654Z,9.03
2019-03-17T15:24:28.286Z,8.63
2019-03-17T15:26:58.127Z,8.65
2019-03-17T15:29:32.277Z,8.70
2019-03-17T15:32:17.221Z,7.22
2019-03-17T15:34:48.935Z,11.38
2019-03-17T15:37:18.709Z,7.72
2019-03-17T15:39:53.071Z,8.83
2019-03-17T15:42:22.958Z,8.85
2019-03-17T15:44:52.882Z,9.55
2019-03-17T15:47:27.142Z,6.15
2019-03-17T15:49:57.026Z,7.20
2019-03-17T15:52:26.755Z,9.33
2019-03-17T15:54:57.093Z,6.72
2019-03-17T15:57:27.437Z,6.60
2019-03-17T15:59:57.647Z,7.55
2019-03-17T16:02:28.068Z,6.40
2019-03-17T16:05:04.309Z,6.67
2019-03-17T16:07:42.098Z,6.08
2019-03-17T16:10:07.243Z,6.58
2019-03-17T16:12:42.919Z,6.80
2019-03-17T16:15:12.378Z,7.03
2019-03-17T16:17:57.964Z,6.12
2019-03-17T16:20:32.327Z,6.08
2019-03-17T16:23:04.894Z,7.03
2019-03-17T16:25:34.905Z,7.20
2019-03-17T16:28:05.006Z,12.03
2019-03-17T16:30:34.900Z,8.93
2019-03-17T16:33:05.036Z,8.83
2019-03-17T16:35:38.176Z,10.38
2019-03-17T16:38:08.464Z,8.85
2019-03-17T16:40:38.356Z,13.55
2019-03-17T16:43:16.798Z,10.13
2019-03-17T16:45:47.619Z,14.23
2019-03-17T16:48:20.000Z,7.80
2019-03-17T16:50:49.844Z,16.48
2019-03-17T16:53:19.896Z,17.17
2019-03-17T16:55:49.836Z,12.10
2019-03-17T16:58:19.779Z,20.07
2019-03-17T17:00:49.726Z,14.73
2019-03-17T17:03:21.456Z,14.05
2019-03-17T17:05:55.449Z,12.45
2019-03-17T17:08:25.359Z,10.60
2019-03-17T17:10:55.310Z,20.25
2019-03-17T17:13:29.289Z,18.27
2019-03-17T17:15:59.672Z,11.00
2019-03-17T17:18:31.059Z,13.65
2019-03-17T17:21:07.121Z,9.13
2019-03-17T17:23:47.884Z,7.37
2019-03-17T17:26:37.858Z,5.45
2019-03-17T17:29:08.436Z,17.82
2019-03-17T17:31:38.319Z,10.53
2019-03-17T17:34:11.976Z,12.88
2019-03-17T17:36:42.253Z,10.83
2019-03-17T17:39:11.966Z,8.33
2019-03-17T17:41:42.872Z,11.90
2019-03-17T17:44:13.335Z,9.95
2019-03-17T17:46:43.805Z,11.40
2019-03-17T17:49:16.157Z,7.78
2019-03-17T17:51:46.888Z,11.85
2019-03-17T17:54:27.440Z,17.35
2019-03-17T17:56:59.993Z,7.55
2019-03-17T17:59:32.717Z,7.33
2019-03-17T18:02:04.727Z,7.03
2019-03-17T18:04:35.035Z,9.78
2019-03-17T18:07:05.324Z,6.22
2019-03-17T18:09:35.554Z,9.53
2019-03-17T18:12:05.377Z,9.65
2019-03-17T18:14:35.290Z,7.22
2019-03-17T18:17:07.712Z,11.30
2019-03-17T18:19:37.881Z,7.60
2019-03-17T18:22:09.979Z,5.42
2019-03-17T18:24:52.804Z,6.20
2019-03-17T18:27:30.276Z,8.13
2019-03-17T18:30:03.079Z,7.80
2019-03-17T18:32:33.395Z,7.62
2019-03-17T18:35:03.211Z,8.00
2019-03-17T18:37:33.058Z,9.63
2019-03-17T18:40:02.851Z,9.15
2019-03-17T18:42:33.521Z,8.45
2019-03-17T18:45:03.506Z,6.58
2019-03-17T18:47:33.566Z,7.30
2019-03-17T18:50:03.703Z,8.85
2019-03-17T18:52:34.036Z,8.70
2019-03-17T18:55:03.811Z,6.97
2019-03-17T18:57:34.066Z,7.80
2019-03-17T19:00:04.564Z,7.90
2019-03-17T19:02:34.444Z,8.75
2019-03-17T19:05:05.256Z,7.47
2019-03-17T19:07:35.012Z,8.75
2019-03-17T19:10:04.872Z,10.53
2019-03-17T19:12:45.488Z,8.60
2019-03-17T19:15:11.320Z,7.97
2019-03-17T19:17:43.508Z,7.80
2019-03-17T19:20:14.206Z,8.43
2019-03-17T19:22:53.841Z,8.90
2019-03-17T19:25:23.534Z,7.45
2019-03-17T19:27:55.202Z,10.08
2019-03-17T19:30:27.581Z,9.98
2019-03-17T19:32:57.898Z,9.48
2019-03-17T19:35:29.550Z,8.23
2019-03-17T19:38:06.615Z,9.50
2019-03-17T19:40:42.484Z,8.75
2019-03-17T19:43:14.474Z,10.00
2019-03-17T19:45:44.363Z,9.68
2019-03-17T19:48:14.299Z,8.15
2019-03-17T19:50:44.273Z,8.03
2019-03-17T19:53:14.339Z,8.60
2019-03-17T19:55:44.451Z,11.27
2019-03-17T19:58:14.584Z,12.78
2019-03-17T20:00:44.908Z,12.90
2019-03-17T20:03:15.268Z,9.58
2019-03-17T20:05:48.428Z,12.93
2019-03-17T20:08:18.532Z,8.20
2019-03-17T20:10:51.500Z,7.47
2019-03-17T20:13:21.332Z,6.67
2019-03-17T20:15:51.450Z,6.95
2019-03-17T20:18:21.157Z,4.78
2019-03-17T20:20:51.996Z,4.80
2019-03-17T20:23:21.933Z,4.37
2019-03-17T20:25:51.751Z,5.33
2019-03-17T20:28:21.656Z,5.17
2019-03-17T20:30:51.430Z,3.93
2019-03-17T20:33:22.560Z,2.33
2019-03-17T20:35:53.085Z,4.80
2019-03-17T20:38:23.778Z,8.43
2019-03-17T20:40:53.811Z,2.33
2019-03-17T20:43:34.260Z,2.33
2019-03-17T20:45:55.826Z,2.35
2019-03-17T20:48:26.035Z,2.50
2019-03-17T20:50:59.063Z,2.37
2019-03-17T20:53:28.391Z,2.25
2019-03-17T20:55:59.095Z,4.30
2019-03-17T20:58:28.984Z,3.47
2019-03-17T21:00:58.963Z,2.60
2019-03-17T21:03:29.685Z,2.42
2019-03-17T21:05:59.930Z,3.85
2019-03-17T21:08:29.723Z,2.50
2019-03-17T21:11:02.522Z,2.52
2019-03-17T21:13:32.384Z,2.67
2019-03-17T21:16:03.844Z,2.87
2019-03-17T21:18:33.598Z,2.72
2019-03-17T21:21:05.387Z,2.50
2019-03-17T21:23:35.598Z,2.50
2019-03-17T21:26:05.555Z,2.47
2019-03-17T21:28:35.277Z,2.50
2019-03-17T21:31:05.130Z,2.70
2019-03-17T21:33:35.331Z,2.40
2019-03-17T21:36:06.235Z,2.02
2019-03-17T21:38:36.305Z,2.30
2019-03-17T21:41:07.410Z,2.05
2019-03-17T21:43:37.698Z,1.90
2019-03-17T21:46:07.483Z,1.98
2019-03-17T21:48:38.368Z,2.22
2019-03-17T21:51:10.810Z,2.20
2019-03-17T21:53:40.699Z,2.55
2019-03-17T21:56:10.615Z,2.10
2019-03-17T21:58:40.569Z,1.90
2019-03-17T22:01:12.940Z,2.02
2019-03-17T22:03:42.838Z,2.20
2019-03-17T22:06:12.667Z,1.80
2019-03-17T22:08:43.893Z,2.10
2019-03-17T22:11:13.602Z,2.12
2019-03-17T22:13:43.415Z,2.27
2019-03-17T22:16:13.120Z,2.25
2019-03-17T22:18:43.350Z,2.58
2019-03-17T22:21:13.183Z,3.02
2019-03-17T22:23:43.026Z,2.00
2019-03-17T22:26:13.329Z,2.35
2019-03-17T22:28:45.165Z,2.62
2019-03-17T22:31:15.271Z,2.52
2019-03-17T22:33:45.363Z,2.90
2019-03-17T22:36:15.751Z,2.52
2019-03-17T22:38:46.903Z,2.70
2019-03-17T22:41:17.292Z,2.85
2019-03-17T22:43:47.828Z,3.47
2019-03-17T22:46:20.003Z,3.08
2019-03-17T22:48:50.109Z,3.10
2019-03-17T22:51:21.058Z,2.62
2019-03-17T22:53:58.468Z,3.70
2019-03-17T22:56:28.309Z,2.83
2019-03-17T22:58:59.561Z,3.87
2019-03-17T23:01:33.483Z,3.67
2019-03-17T23:04:04.415Z,2.85
2019-03-17T23:06:35.748Z,4.53
2019-03-17T23:09:14.277Z,4.53
2019-03-17T23:11:49.871Z,3.55
2019-03-17T23:14:21.515Z,6.37
2019-03-17T23:16:55.665Z,4.08
2019-03-17T23:23:53.314Z,2.65
2019-03-17T23:30:02.518Z,2.20
2019-03-17T23:33:08.401Z,3.50
2019-03-17T23:36:27.684Z,2.00
2019-03-17T23:39:21.832Z,2.65
2019-03-17T23:41:58.936Z,2.80
2019-03-17T23:44:28.661Z,3.20
2019-03-17T23:46:58.530Z,3.55
2019-03-17T23:49:28.793Z,4.03
2019-03-17T23:51:58.584Z,4.12
2019-03-17T23:54:28.647Z,3.42
2019-03-17T23:57:02.321Z,3.40
2019-03-17T23:59:32.155Z,3.20
